ADDS TAF Board (Experimental) INFO Settings
IDs: Format: Expanded Condensed

KBOS - Boston/Logan Intl, MA, US

Issued at 1736 UTC 29 Jul 2015
Updated at: 1956 UTC 29 Jul 2015
Time1954Z 29/20Z 29/21Z 29/22Z 29/23Z 30/00Z 30/01Z 30/02Z 30/03Z 30/04Z 30/05Z 30/06Z 30/07Z 30/08Z
Type OBS PRVL PRVL PRVL PRVL PRVL PRVL PRVL PRVL PRVL PRVL PRVL PRVL PRVL
VIS 10 >6 >6 >6 >6 >6 >6 >6 >6 >6 >6 >6 >6 >6
CIG 250 -- -- -- -- 250 250 250 250 250 250 250 250 250
Cover BKN SCT SCT SCT SCT BKN BKN BKN BKN BKN BKN BKN BKN BKN
FltCat VFR VFR VFR VFR VFR VFR VFR VFR VFR VFR VFR VFR VFR VFR
WX -- -- -- -- -- -- -- -- -- -- -- -- -- --
WDir 70 150 150 190 190 210 210 210 210 210 210 210 210 210
WSpd 6 10 10 10 10 9 9 9 9 9 9 9 9 9
WGst -- -- -- -- -- -- -- -- -- -- -- -- -- --
R04/22
XWnd -5 -8 -8 -2 -2 2 2 2 2 2 2 2 2 2
HWnd 4 -6 -6 -10 -10 -9 -9 -9 -9 -9 -9 -9 -9 -9
R09/27
XWnd 1 -10 -10 -9 -9 -7 -7 -7 -7 -7 -7 -7 -7 -7
HWnd 6 3 3 -4 -4 -6 -6 -6 -6 -6 -6 -6 -6 -6
R14/32
XWnd 5 -4 -4 -9 -9 -9 -9 -9 -9 -9 -9 -9 -9 -9
HWnd 3 9 9 4 4 1 1 1 1 1 1 1 1 1
R15/33
XWnd 5 -3 -3 -8 -8 -9 -9 -9 -9 -9 -9 -9 -9 -9
HWnd 3 10 10 6 6 2 2 2 2 2 2 2 2 2

NOTE: TEMPO conditions in [brackets]. Keep in mind TEMPO conditions might be better (lower impact) than prevailing conditions.

Raw TAF
KBOS 291736Z 2918/3024 14006KT P6SM FEW050 SCT250
  FM292000 15010KT P6SM SCT050
  FM292200 19010KT P6SM SCT050
  FM300000 21009KT P6SM SCT050 BKN250
  FM301700 21014G25KT P6SM BKN050


Raw METAR
KBOS 291954Z 07006KT 10SM FEW065 SCT090 BKN250 31/20 A2989 RMK AO2 SLP120 T03110200
KBOS 291854Z 09010KT 10SM FEW055 SCT080 BKN250 31/19 A2991 RMK AO2 SLP127 BLDG CU E T03060189
KBOS 291754Z 11009KT 10SM FEW040 SCT065 BKN250 30/18 A2991 RMK AO2 SLP128 T03000183 10306 20261 56014
KBOS 291654Z 14007KT 10SM FEW045 SCT075 BKN250 29/18 A2992 RMK AO2 SLP132 T02940178

METAR Board
Radar Display
Forecast Discussion

TAF Board Legend

Potential Impact
Threat None Slight Moderate High
Visibility (sm) ≥5.1 5.1>X≥3 3>X≥1 <1
Ceiling (100 ft) ≥30.1 30.1>X≥10 10>X≥5 <5
Wind Speed (kt) <10 10≤X<20 20≤X<30 ≥30
Wind Gust (kt) <15 15≤X<25 25≤X<35 ≥35
Weather No Wx Reported VCTS,-TS,-FZRA,SN TS,FZRA +TS,+FZRA,+SN